sensor_id;sensor_type;location;lat;lon;timestamp;P1;durP1;ratioP1;P2;durP2;ratioP2
72275;SDS011;61204;49.980;8.358;2022-12-18T00:01:29;38.75;;;18.08;;
72275;SDS011;61204;49.980;8.358;2022-12-18T00:04:01;38.63;;;18.90;;
72275;SDS011;61204;49.980;8.358;2022-12-18T00:06:30;37.08;;;17.67;;
72275;SDS011;61204;49.980;8.358;2022-12-18T00:08:58;41.22;;;18.27;;
72275;SDS011;61204;49.980;8.358;2022-12-18T00:11:27;40.08;;;18.95;;
72275;SDS011;61204;49.980;8.358;2022-12-18T00:13:56;39.58;;;19.77;;
72275;SDS011;61204;49.980;8.358;2022-12-18T00:16:25;42.90;;;18.92;;
72275;SDS011;61204;49.980;8.358;2022-12-18T00:18:54;38.70;;;18.90;;
72275;SDS011;61204;49.980;8.358;2022-12-18T00:21:22;39.67;;;18.73;;
72275;SDS011;61204;49.980;8.358;2022-12-18T00:23:48;41.03;;;18.35;;
72275;SDS011;61204;49.980;8.358;2022-12-18T00:26:16;38.10;;;17.23;;
72275;SDS011;61204;49.980;8.358;2022-12-18T00:28:50;38.42;;;17.95;;
72275;SDS011;61204;49.980;8.358;2022-12-18T00:31:18;43.97;;;19.25;;
72275;SDS011;61204;49.980;8.358;2022-12-18T00:33:48;49.63;;;21.27;;
72275;SDS011;61204;49.980;8.358;2022-12-18T00:36:15;41.15;;;18.92;;
72275;SDS011;61204;49.980;8.358;2022-12-18T00:38:46;38.22;;;19.90;;
72275;SDS011;61204;49.980;8.358;2022-12-18T00:41:14;41.45;;;20.38;;
72275;SDS011;61204;49.980;8.358;2022-12-18T00:44:03;40.42;;;19.98;;
72275;SDS011;61204;49.980;8.358;2022-12-18T00:46:31;41.38;;;20.25;;
72275;SDS011;61204;49.980;8.358;2022-12-18T00:48:57;42.90;;;20.27;;
72275;SDS011;61204;49.980;8.358;2022-12-18T00:51:24;39.38;;;20.33;;
72275;SDS011;61204;49.980;8.358;2022-12-18T00:53:50;41.38;;;20.40;;
72275;SDS011;61204;49.980;8.358;2022-12-18T00:56:17;40.38;;;20.60;;
72275;SDS011;61204;49.980;8.358;2022-12-18T00:58:42;40.55;;;20.08;;
72275;SDS011;61204;49.980;8.358;2022-12-18T01:01:08;40.83;;;20.15;;
72275;SDS011;61204;49.980;8.358;2022-12-18T01:03:33;40.63;;;20.17;;
72275;SDS011;61204;49.980;8.358;2022-12-18T01:06:04;41.08;;;20.35;;
72275;SDS011;61204;49.980;8.358;2022-12-18T01:08:36;40.90;;;20.02;;
72275;SDS011;61204;49.980;8.358;2022-12-18T01:11:07;40.83;;;20.25;;
72275;SDS011;61204;49.980;8.358;2022-12-18T01:13:37;36.38;;;18.40;;
72275;SDS011;61204;49.980;8.358;2022-12-18T01:16:04;40.67;;;18.90;;
72275;SDS011;61204;49.980;8.358;2022-12-18T01:18:31;35.33;;;19.13;;
72275;SDS011;61204;49.980;8.358;2022-12-18T01:20:56;39.08;;;19.60;;
72275;SDS011;61204;49.980;8.358;2022-12-18T01:23:22;36.15;;;19.25;;
72275;SDS011;61204;49.980;8.358;2022-12-18T01:25:48;37.53;;;19.30;;
72275;SDS011;61204;49.980;8.358;2022-12-18T01:28:13;38.25;;;18.73;;
72275;SDS011;61204;49.980;8.358;2022-12-18T01:30:39;33.47;;;16.90;;
72275;SDS011;61204;49.980;8.358;2022-12-18T01:33:05;38.30;;;18.77;;
72275;SDS011;61204;49.980;8.358;2022-12-18T01:35:30;38.25;;;17.45;;
72275;SDS011;61204;49.980;8.358;2022-12-18T01:37:56;41.90;;;18.48;;
72275;SDS011;61204;49.980;8.358;2022-12-18T01:40:22;36.05;;;18.10;;
72275;SDS011;61204;49.980;8.358;2022-12-18T01:42:50;36.97;;;17.98;;
72275;SDS011;61204;49.980;8.358;2022-12-18T01:50:34;42.33;;;19.67;;
72275;SDS011;61204;49.980;8.358;2022-12-18T01:55:48;36.15;;;18.48;;
72275;SDS011;61204;49.980;8.358;2022-12-18T01:58:20;32.03;;;16.60;;
72275;SDS011;61204;49.980;8.358;2022-12-18T02:01:01;33.45;;;17.00;;
72275;SDS011;61204;49.980;8.358;2022-12-18T02:03:27;36.05;;;18.10;;
72275;SDS011;61204;49.980;8.358;2022-12-18T02:06:05;34.50;;;16.60;;
72275;SDS011;61204;49.980;8.358;2022-12-18T02:17:36;36.70;;;16.13;;
72275;SDS011;61204;49.980;8.358;2022-12-18T02:23:36;32.40;;;16.98;;
72275;SDS011;61204;49.980;8.358;2022-12-18T02:26:27;35.85;;;18.75;;
72275;SDS011;61204;49.980;8.358;2022-12-18T02:29:18;33.28;;;16.30;;
72275;SDS011;61204;49.980;8.358;2022-12-18T02:31:53;40.42;;;18.35;;
72275;SDS011;61204;49.980;8.358;2022-12-18T02:34:25;39.25;;;16.90;;
72275;SDS011;61204;49.980;8.358;2022-12-18T02:36:57;39.28;;;18.67;;
72275;SDS011;61204;49.980;8.358;2022-12-18T02:39:30;35.38;;;16.92;;
72275;SDS011;61204;49.980;8.358;2022-12-18T02:42:01;35.45;;;17.02;;
72275;SDS011;61204;49.980;8.358;2022-12-18T02:44:32;37.28;;;17.83;;
72275;SDS011;61204;49.980;8.358;2022-12-18T02:47:08;35.45;;;17.73;;
72275;SDS011;61204;49.980;8.358;2022-12-18T02:49:48;33.65;;;16.08;;
72275;SDS011;61204;49.980;8.358;2022-12-18T02:52:45;34.38;;;17.70;;
72275;SDS011;61204;49.980;8.358;2022-12-18T02:58:46;29.73;;;17.30;;
72275;SDS011;61204;49.980;8.358;2022-12-18T03:01:49;31.30;;;15.55;;
72275;SDS011;61204;49.980;8.358;2022-12-18T03:08:31;27.40;;;15.63;;
72275;SDS011;61204;49.980;8.358;2022-12-18T03:10:49;30.92;;;15.85;;
72275;SDS011;61204;49.980;8.358;2022-12-18T03:13:37;33.10;;;15.73;;
72275;SDS011;61204;49.980;8.358;2022-12-18T03:16:27;35.25;;;16.85;;
72275;SDS011;61204;49.980;8.358;2022-12-18T03:18:57;28.35;;;15.80;;
72275;SDS011;61204;49.980;8.358;2022-12-18T03:24:07;34.90;;;16.48;;
72275;SDS011;61204;49.980;8.358;2022-12-18T03:26:36;32.33;;;16.95;;
72275;SDS011;61204;49.980;8.358;2022-12-18T03:29:11;32.75;;;17.30;;
72275;SDS011;61204;49.980;8.358;2022-12-18T03:31:59;27.02;;;15.02;;
72275;SDS011;61204;49.980;8.358;2022-12-18T03:34:35;33.38;;;17.35;;
72275;SDS011;61204;49.980;8.358;2022-12-18T03:37:07;28.48;;;16.48;;
72275;SDS011;61204;49.980;8.358;2022-12-18T03:39:33;29.92;;;17.20;;
72275;SDS011;61204;49.980;8.358;2022-12-18T03:45:27;34.90;;;17.17;;
72275;SDS011;61204;49.980;8.358;2022-12-18T03:48:17;36.70;;;17.58;;
72275;SDS011;61204;49.980;8.358;2022-12-18T03:51:05;31.20;;;16.85;;
72275;SDS011;61204;49.980;8.358;2022-12-18T03:53:49;32.45;;;17.00;;
72275;SDS011;61204;49.980;8.358;2022-12-18T03:56:30;29.45;;;15.68;;
